createdAt,value
2018-08-25T00:02:51.387Z,46.60
2018-08-25T00:05:54.395Z,47.30
2018-08-25T00:08:57.483Z,46.90
2018-08-25T00:12:00.523Z,46.50
2018-08-25T00:15:03.810Z,47.00
2018-08-25T00:18:08.798Z,46.70
2018-08-25T00:21:11.885Z,47.50
2018-08-25T00:24:14.927Z,47.60
2018-08-25T00:27:17.997Z,46.60
2018-08-25T00:30:26.679Z,47.40
2018-08-25T00:33:29.718Z,47.30
2018-08-25T00:36:33.246Z,46.70
2018-08-25T00:39:36.277Z,47.10
2018-08-25T00:42:39.411Z,47.30
2018-08-25T00:45:42.527Z,48.30
2018-08-25T00:48:45.613Z,47.00
2018-08-25T00:51:48.650Z,46.80
2018-08-25T00:54:51.725Z,47.20
2018-08-25T00:57:54.830Z,47.00
2018-08-25T01:00:57.913Z,47.60
2018-08-25T01:04:00.971Z,47.20
2018-08-25T01:07:04.482Z,47.90
2018-08-25T01:10:07.613Z,47.10
2018-08-25T01:13:10.861Z,47.40
2018-08-25T01:16:13.900Z,47.80
2018-08-25T01:19:17.037Z,47.70
2018-08-25T01:22:20.198Z,47.80
2018-08-25T01:25:23.278Z,48.00
2018-08-25T01:28:26.368Z,48.20
2018-08-25T01:31:29.534Z,47.30
2018-08-25T01:34:32.519Z,47.50
2018-08-25T01:37:35.517Z,47.80
2018-08-25T01:40:38.502Z,47.60
2018-08-25T01:43:41.621Z,47.40
2018-08-25T01:46:51.401Z,48.30
2018-08-25T01:49:54.419Z,48.20
2018-08-25T01:52:57.498Z,47.40
2018-08-25T01:56:00.538Z,47.70
2018-08-25T01:59:03.619Z,48.50
2018-08-25T02:02:06.693Z,48.80
2018-08-25T02:05:09.684Z,47.50
2018-08-25T02:08:12.825Z,48.00
2018-08-25T02:11:15.898Z,48.20
2018-08-25T02:14:18.936Z,48.50
2018-08-25T02:17:21.994Z,48.30
2018-08-25T02:20:25.258Z,48.80
2018-08-25T02:23:28.423Z,48.60
2018-08-25T02:26:31.515Z,48.80
2018-08-25T02:29:34.587Z,49.00
2018-08-25T02:32:37.694Z,48.80
2018-08-25T02:35:40.835Z,48.40
2018-08-25T02:38:43.880Z,49.30
2018-08-25T02:41:46.901Z,48.40
2018-08-25T02:44:49.969Z,48.70
2018-08-25T02:47:53.830Z,48.70
2018-08-25T02:50:56.827Z,49.00
2018-08-25T02:53:59.906Z,48.90
2018-08-25T02:57:02.987Z,49.00
2018-08-25T03:00:06.128Z,49.20
2018-08-25T03:03:09.225Z,51.20
2018-08-25T03:06:19.635Z,53.60
2018-08-25T03:09:30.295Z,52.60
2018-08-25T03:12:33.552Z,54.10
2018-08-25T03:15:36.598Z,54.70
2018-08-25T03:18:40.894Z,55.10
2018-08-25T03:21:44.445Z,55.10
2018-08-25T03:26:07.432Z,55.10
2018-08-25T03:29:30.741Z,54.90
2018-08-25T03:32:34.092Z,54.50
2018-08-25T03:35:58.056Z,54.20
2018-08-25T03:39:01.646Z,52.80
2018-08-25T03:42:07.785Z,54.00
2018-08-25T03:45:10.971Z,52.60
2018-08-25T03:51:55.441Z,56.20
2018-08-25T03:54:59.674Z,55.90
2018-08-25T03:58:04.287Z,56.50
2018-08-25T04:01:09.271Z,58.60
2018-08-25T04:04:12.436Z,59.80
2018-08-25T04:07:15.558Z,61.50
2018-08-25T04:10:18.707Z,62.40
2018-08-25T04:13:21.786Z,64.20
2018-08-25T04:16:24.833Z,65.20
2018-08-25T04:19:28.102Z,64.70
2018-08-25T04:22:31.232Z,64.30
2018-08-25T04:25:34.421Z,64.60
2018-08-25T04:28:37.518Z,63.70
2018-08-25T04:31:40.672Z,63.90
2018-08-25T04:34:43.883Z,63.80
2018-08-25T04:37:46.986Z,63.00
2018-08-25T04:40:50.077Z,64.20
2018-08-25T04:43:53.150Z,63.80
2018-08-25T04:46:56.271Z,65.80
2018-08-25T04:49:59.346Z,65.40
2018-08-25T04:53:02.655Z,64.80
2018-08-25T04:56:05.799Z,65.20
2018-08-25T04:59:08.857Z,63.40
2018-08-25T05:02:11.994Z,64.90
2018-08-25T05:05:15.105Z,65.10
2018-08-25T05:08:18.252Z,64.50
2018-08-25T05:11:21.277Z,63.30
2018-08-25T05:14:24.470Z,64.00
2018-08-25T05:17:27.696Z,64.70
2018-08-25T05:20:31.723Z,65.40
2018-08-25T05:23:34.837Z,64.70
2018-08-25T05:26:38.023Z,66.40
2018-08-25T05:29:41.202Z,66.80
2018-08-25T05:32:44.346Z,66.60
2018-08-25T05:35:48.078Z,67.40
2018-08-25T05:38:51.325Z,66.60
2018-08-25T05:41:55.818Z,66.10
2018-08-25T05:44:58.951Z,67.70
2018-08-25T05:48:02.192Z,68.10
2018-08-25T05:51:05.714Z,68.00
2018-08-25T05:54:08.810Z,66.80
2018-08-25T05:57:14.842Z,67.40
2018-08-25T06:00:18.154Z,67.80
2018-08-25T06:03:21.267Z,67.10
2018-08-25T06:06:24.428Z,66.20
2018-08-25T06:09:27.836Z,67.60
2018-08-25T06:12:30.981Z,66.20
2018-08-25T06:15:36.851Z,67.40
2018-08-25T06:18:40.009Z,67.40
2018-08-25T06:21:43.098Z,67.80
2018-08-25T06:24:46.184Z,67.00
2018-08-25T06:27:49.286Z,67.10
2018-08-25T06:30:52.477Z,66.10
2018-08-25T06:33:55.671Z,66.70
2018-08-25T06:36:58.735Z,66.50
2018-08-25T06:40:01.862Z,68.00
2018-08-25T06:43:05.170Z,68.20
2018-08-25T06:46:09.066Z,65.70
2018-08-25T06:49:12.136Z,66.60
2018-08-25T06:52:15.137Z,67.20
2018-08-25T06:55:18.228Z,67.10
2018-08-25T06:58:21.300Z,66.00
2018-08-25T07:01:24.320Z,66.30
2018-08-25T07:04:27.433Z,65.30
2018-08-25T07:07:30.644Z,65.30
2018-08-25T07:10:34.346Z,66.40
2018-08-25T07:13:38.594Z,66.20
2018-08-25T07:16:41.730Z,64.80
2018-08-25T07:19:44.982Z,66.80
2018-08-25T07:22:48.159Z,65.00
2018-08-25T07:25:51.339Z,64.30
2018-08-25T07:28:54.377Z,65.00
2018-08-25T07:31:57.715Z,65.10
2018-08-25T07:35:00.810Z,63.60
2018-08-25T07:38:04.034Z,64.20
2018-08-25T07:41:07.094Z,63.70
2018-08-25T07:44:10.189Z,64.20
2018-08-25T07:47:13.294Z,64.20
2018-08-25T07:50:16.370Z,63.50
2018-08-25T07:53:19.490Z,63.90
2018-08-25T07:56:22.533Z,64.30
2018-08-25T07:59:25.597Z,64.00
2018-08-25T08:02:28.701Z,64.50
2018-08-25T08:05:31.864Z,64.70
2018-08-25T08:08:35.009Z,64.70
2018-08-25T08:11:38.187Z,64.00
2018-08-25T08:15:43.933Z,64.00
2018-08-25T08:18:47.086Z,65.00
2018-08-25T08:21:56.779Z,65.30
2018-08-25T08:24:59.938Z,64.30
2018-08-25T08:28:03.055Z,63.30
2018-08-25T08:31:06.141Z,62.20
2018-08-25T08:34:09.341Z,61.40
2018-08-25T08:37:12.378Z,61.10
2018-08-25T08:40:15.553Z,59.20
2018-08-25T08:43:19.342Z,59.60
2018-08-25T08:46:28.008Z,61.10
2018-08-25T08:49:31.018Z,60.20
2018-08-25T08:52:34.054Z,58.50
2018-08-25T08:55:37.084Z,60.10
2018-08-25T09:02:11.929Z,58.50
2018-08-25T09:05:15.023Z,58.50
2018-08-25T09:08:18.201Z,58.00
2018-08-25T09:11:21.213Z,57.70
2018-08-25T09:14:24.426Z,58.90
2018-08-25T09:17:27.506Z,57.50
2018-08-25T09:20:30.612Z,58.60
2018-08-25T09:23:33.686Z,58.90
2018-08-25T09:26:36.751Z,59.10
2018-08-25T09:29:39.853Z,59.50
2018-08-25T09:32:42.951Z,59.40
2018-08-25T09:35:46.085Z,59.40
2018-08-25T09:38:49.427Z,59.40
2018-08-25T09:41:52.668Z,58.70
2018-08-25T09:44:55.679Z,59.50
2018-08-25T09:47:58.741Z,58.90
2018-08-25T09:51:01.791Z,59.80
2018-08-25T09:54:04.935Z,60.10
2018-08-25T09:57:08.104Z,58.20
2018-08-25T10:00:11.278Z,57.20
2018-08-25T10:03:14.352Z,57.70
2018-08-25T10:06:17.449Z,57.50
2018-08-25T10:09:20.506Z,56.70
2018-08-25T10:12:23.670Z,58.10
2018-08-25T10:15:26.810Z,56.30
2018-08-25T10:18:30.071Z,55.90
2018-08-25T10:21:33.184Z,55.10
2018-08-25T10:24:36.170Z,54.80
2018-08-25T10:27:39.291Z,54.00
2018-08-25T10:30:42.385Z,54.40
2018-08-25T10:33:45.410Z,55.40
2018-08-25T10:36:48.502Z,53.70
2018-08-25T10:39:51.560Z,54.00
2018-08-25T10:42:55.068Z,55.30
2018-08-25T10:45:58.109Z,54.60
2018-08-25T10:49:01.185Z,54.10
2018-08-25T10:52:04.354Z,54.50
2018-08-25T10:55:07.427Z,54.30
2018-08-25T10:58:10.545Z,54.30
2018-08-25T11:01:13.728Z,54.40
2018-08-25T11:04:17.437Z,52.70
2018-08-25T11:07:21.790Z,52.60
2018-08-25T11:10:25.060Z,53.20
2018-08-25T11:13:28.442Z,53.60
2018-08-25T11:16:31.905Z,55.00
2018-08-25T11:19:35.392Z,53.40
2018-08-25T11:22:41.687Z,54.00
2018-08-25T11:25:44.934Z,53.20
2018-08-25T11:28:48.084Z,51.40
2018-08-25T11:31:51.110Z,54.00
2018-08-25T11:34:54.143Z,53.70
2018-08-25T11:37:57.178Z,53.50
2018-08-25T11:41:00.199Z,54.50
2018-08-25T11:44:03.336Z,54.20
2018-08-25T11:47:12.106Z,54.10
2018-08-25T11:50:15.147Z,54.40
2018-08-25T11:53:18.158Z,55.60
2018-08-25T11:56:21.342Z,56.40
2018-08-25T11:59:24.479Z,57.00
2018-08-25T12:02:28.399Z,59.10
2018-08-25T12:05:31.494Z,59.10
2018-08-25T12:08:34.584Z,59.80
2018-08-25T12:11:37.672Z,58.90
2018-08-25T12:14:40.782Z,57.70
2018-08-25T12:17:43.914Z,56.90
2018-08-25T12:20:47.072Z,57.90
2018-08-25T12:23:50.243Z,57.00
2018-08-25T12:26:54.322Z,56.60
2018-08-25T12:29:57.448Z,56.00
2018-08-25T12:33:00.619Z,56.30
2018-08-25T12:36:03.842Z,55.00
2018-08-25T12:39:09.448Z,52.80
2018-08-25T12:42:12.450Z,53.50
2018-08-25T12:45:15.587Z,52.50
2018-08-25T12:48:18.614Z,53.00
2018-08-25T12:51:21.678Z,53.50
2018-08-25T12:54:24.711Z,51.40
2018-08-25T12:57:27.782Z,51.30
2018-08-25T13:00:30.867Z,50.40
2018-08-25T13:03:34.011Z,49.40
2018-08-25T13:06:37.088Z,48.60
2018-08-25T13:09:40.178Z,45.70
2018-08-25T13:12:43.236Z,44.50
2018-08-25T13:15:46.301Z,43.60
2018-08-25T13:18:49.459Z,43.50
2018-08-25T13:21:52.612Z,44.60
2018-08-25T13:24:55.778Z,43.50
2018-08-25T13:27:58.870Z,45.60
2018-08-25T13:31:02.077Z,46.00
2018-08-25T13:34:05.374Z,46.00
2018-08-25T13:37:08.508Z,47.60
2018-08-25T13:40:11.687Z,45.80
2018-08-25T13:43:14.737Z,46.10
2018-08-25T13:46:17.874Z,46.30
2018-08-25T13:49:21.058Z,45.10
2018-08-25T13:52:24.247Z,45.50
2018-08-25T13:55:27.427Z,44.20
2018-08-25T13:58:30.509Z,43.60
2018-08-25T14:01:33.664Z,44.40
2018-08-25T14:04:36.703Z,43.60
2018-08-25T14:07:39.782Z,43.60
2018-08-25T14:10:42.892Z,44.60
2018-08-25T14:13:45.978Z,45.30
2018-08-25T14:16:49.088Z,44.10
2018-08-25T14:19:52.166Z,45.80
2018-08-25T14:22:55.787Z,47.60
2018-08-25T14:25:58.881Z,49.60
2018-08-25T14:29:02.007Z,52.10
2018-08-25T14:32:05.112Z,53.20
2018-08-25T14:35:08.269Z,52.60
2018-08-25T14:38:11.329Z,52.50
2018-08-25T14:41:14.450Z,52.80
2018-08-25T14:44:17.593Z,52.40
2018-08-25T14:47:20.747Z,53.00
2018-08-25T14:50:23.797Z,52.80
2018-08-25T14:53:26.989Z,50.90
2018-08-25T14:56:30.043Z,49.00
2018-08-25T14:59:33.195Z,51.10
2018-08-25T15:02:36.631Z,50.30
2018-08-25T15:05:40.015Z,50.50
2018-08-25T15:08:44.418Z,50.50
2018-08-25T15:11:48.415Z,50.20
2018-08-25T15:14:52.438Z,49.90
2018-08-25T15:17:56.304Z,48.40
2018-08-25T15:20:59.449Z,48.70
2018-08-25T15:24:02.711Z,46.50
2018-08-25T15:27:06.007Z,44.70
2018-08-25T15:30:09.449Z,44.20
2018-08-25T15:33:12.951Z,42.40
2018-08-25T15:36:16.142Z,42.60
2018-08-25T15:39:19.240Z,44.20
2018-08-25T15:42:22.319Z,44.80
2018-08-25T15:45:25.460Z,44.40
2018-08-25T15:48:28.626Z,45.30
2018-08-25T15:51:31.795Z,45.40
2018-08-25T15:54:34.917Z,44.60
2018-08-25T15:57:38.074Z,46.60
2018-08-25T16:00:41.218Z,46.50
2018-08-25T16:03:44.334Z,46.50
2018-08-25T16:06:47.340Z,46.90
2018-08-25T16:09:50.486Z,48.30
2018-08-25T16:12:53.631Z,46.80
2018-08-25T16:15:56.686Z,47.30
2018-08-25T16:18:59.767Z,47.80
2018-08-25T16:22:02.843Z,48.00
2018-08-25T16:25:06.303Z,47.20
2018-08-25T16:28:09.401Z,48.00
2018-08-25T16:31:12.538Z,48.30
2018-08-25T16:34:15.673Z,47.70
2018-08-25T16:37:18.766Z,48.30
2018-08-25T16:40:21.884Z,49.10
2018-08-25T16:43:24.978Z,50.10
2018-08-25T16:46:28.000Z,49.40
2018-08-25T16:49:31.228Z,49.00
2018-08-25T16:52:34.240Z,49.40
2018-08-25T16:55:37.363Z,49.90
2018-08-25T16:58:40.531Z,49.00
2018-08-25T17:01:43.737Z,49.20
2018-08-25T17:04:46.825Z,49.70
2018-08-25T17:07:49.938Z,48.60
2018-08-25T17:10:53.026Z,49.70
2018-08-25T17:13:56.067Z,50.20
2018-08-25T17:16:59.108Z,50.80
2018-08-25T17:20:02.246Z,50.40
2018-08-25T17:23:05.271Z,50.10
2018-08-25T17:26:08.311Z,51.30
2018-08-25T17:29:11.449Z,50.90
2018-08-25T17:32:14.561Z,51.20
2018-08-25T17:35:17.646Z,51.20
2018-08-25T17:38:20.819Z,50.40
2018-08-25T17:41:23.859Z,51.00
2018-08-25T17:44:26.991Z,50.40
2018-08-25T17:47:33.034Z,50.70
2018-08-25T17:50:36.112Z,51.00
2018-08-25T17:53:39.173Z,51.80
2018-08-25T17:56:42.294Z,52.00
2018-08-25T17:59:45.392Z,51.40
2018-08-25T18:02:48.536Z,51.60
2018-08-25T18:05:51.657Z,50.60
2018-08-25T18:08:54.737Z,49.50
2018-08-25T18:11:57.836Z,50.50
2018-08-25T18:15:00.899Z,50.70
2018-08-25T18:18:03.977Z,50.60
2018-08-25T18:21:07.086Z,50.80
2018-08-25T18:24:10.169Z,51.70
2018-08-25T18:27:13.243Z,51.20
2018-08-25T18:30:16.333Z,51.20
2018-08-25T18:33:19.497Z,52.20
2018-08-25T18:36:22.618Z,51.90
2018-08-25T18:39:25.719Z,52.30
2018-08-25T18:42:28.802Z,52.00
2018-08-25T18:45:31.918Z,52.70
2018-08-25T18:48:35.042Z,52.30
2018-08-25T18:51:38.195Z,51.70
2018-08-25T18:54:41.469Z,51.20
2018-08-25T18:57:44.455Z,51.40
2018-08-25T19:00:47.501Z,51.40
2018-08-25T19:03:50.642Z,51.30
2018-08-25T19:06:53.726Z,51.90
2018-08-25T19:09:56.792Z,52.10
2018-08-25T19:12:59.843Z,52.50
2018-08-25T19:16:03.037Z,51.90
2018-08-25T19:19:06.238Z,52.10
2018-08-25T19:22:09.828Z,51.80
2018-08-25T19:25:12.868Z,51.60
2018-08-25T19:28:15.925Z,51.10
2018-08-25T19:31:19.018Z,50.90
2018-08-25T19:34:22.090Z,51.10
2018-08-25T19:37:25.202Z,50.90
2018-08-25T19:40:28.262Z,51.20
2018-08-25T19:43:31.299Z,51.70
2018-08-25T19:46:34.479Z,50.70
2018-08-25T19:49:37.618Z,49.80
2018-08-25T19:52:40.738Z,50.20
2018-08-25T19:55:43.812Z,50.60
2018-08-25T19:58:46.906Z,51.30
2018-08-25T20:01:49.959Z,51.20
2018-08-25T20:04:53.029Z,51.20
2018-08-25T20:07:56.068Z,50.90
2018-08-25T20:10:59.119Z,50.40
2018-08-25T20:14:02.208Z,50.70
2018-08-25T20:17:05.340Z,50.90
2018-08-25T20:20:08.409Z,50.60
2018-08-25T20:23:11.502Z,50.40
2018-08-25T20:26:14.598Z,51.10
2018-08-25T20:29:17.663Z,51.50
2018-08-25T20:32:20.725Z,51.40
2018-08-25T20:35:24.262Z,52.30
2018-08-25T20:38:27.518Z,51.90
2018-08-25T20:41:31.230Z,51.40
2018-08-25T20:44:34.553Z,51.60
2018-08-25T20:47:38.083Z,51.40
2018-08-25T20:50:41.603Z,52.20
2018-08-25T20:53:44.719Z,52.10
2018-08-25T20:56:48.166Z,52.50
2018-08-25T20:59:51.395Z,52.70
2018-08-25T21:02:54.801Z,52.80
2018-08-25T21:05:58.124Z,53.00
2018-08-25T21:09:01.625Z,53.00
2018-08-25T21:12:05.655Z,53.40
2018-08-25T21:15:08.882Z,53.70
2018-08-25T21:18:12.058Z,53.80
2018-08-25T21:21:15.193Z,53.80
2018-08-25T21:24:18.338Z,53.80
2018-08-25T21:27:21.507Z,53.70
2018-08-25T21:30:25.853Z,54.20
2018-08-25T21:33:29.901Z,54.10
2018-08-25T21:36:57.255Z,55.10
2018-08-25T21:40:00.353Z,54.90
2018-08-25T21:43:03.471Z,55.10
2018-08-25T21:46:06.581Z,54.80
2018-08-25T21:49:09.701Z,54.80
2018-08-25T21:52:28.892Z,54.60
2018-08-25T21:55:35.522Z,54.80
2018-08-25T21:58:38.623Z,54.80
2018-08-25T22:01:42.437Z,55.50
2018-08-25T22:04:48.822Z,55.30
2018-08-25T22:07:51.954Z,55.40
2018-08-25T22:10:55.143Z,55.00
2018-08-25T22:13:58.175Z,55.30
2018-08-25T22:17:02.123Z,55.30
2018-08-25T22:20:06.453Z,54.90
2018-08-25T22:23:09.682Z,55.60
2018-08-25T22:26:13.559Z,55.90
2018-08-25T22:29:16.755Z,55.70
2018-08-25T22:32:19.914Z,55.80
2018-08-25T22:35:23.056Z,55.80
2018-08-25T22:38:26.155Z,55.60
2018-08-25T22:41:29.285Z,55.30
2018-08-25T22:44:32.346Z,55.60
2018-08-25T22:47:35.449Z,55.50
2018-08-25T22:50:38.612Z,55.40
2018-08-25T22:53:41.716Z,55.20
2018-08-25T22:56:44.815Z,55.80
2018-08-25T22:59:47.926Z,55.80
2018-08-25T23:02:51.042Z,55.40
2018-08-25T23:05:54.107Z,55.50
2018-08-25T23:08:57.267Z,55.30
2018-08-25T23:12:00.410Z,55.70
2018-08-25T23:15:10.182Z,56.40
2018-08-25T23:18:13.344Z,55.70
2018-08-25T23:21:16.471Z,55.70
2018-08-25T23:24:19.568Z,55.60
2018-08-25T23:27:22.949Z,55.80
2018-08-25T23:30:26.129Z,55.60
2018-08-25T23:33:29.171Z,55.60
2018-08-25T23:36:32.283Z,55.40
2018-08-25T23:39:35.412Z,55.40
2018-08-25T23:42:38.571Z,55.70
2018-08-25T23:45:41.964Z,55.90
2018-08-25T23:48:45.064Z,56.00
2018-08-25T23:51:48.453Z,56.10
2018-08-25T23:54:51.636Z,55.90
2018-08-25T23:57:54.752Z,56.00
